Penkridge, United Kingdom
Current Conditions -  °F | °C
As of 3:04 PM on Friday 24 Oct 2014 (Local Time) from EGOS Reporting Station
Broken Clouds Broken Clouds  
Wind Chill: 13°   Ceiling: 3800
Heat Index: 13°   Visibility: 6mi
Dew Point: 10°   Wind: 10mph
Humidity: 82%   Direction: 240°WSW
Pressure: 29.85"   Gusts: NA
Location:  52.73°N, 2.12°W
Report Text: EGOS 241404Z 24009KT 9999 FEW012 SCT025 BKN038 13/10 Q1011 BLU NOSIG
Loading
Personal Weather Stations






























Interactive Weather Map
Tropical Storm Tracking
New forecast layout! Learn more

10-Day Weather Forecast

Advertisements
Track Severe Weather on mobile